Strona główna
METAR-TAF:

METAR-TAF

Lotnisko :

Medan, Sumatra Północna, Indonezja

Szerokość geograficzna: 03-34N, Długość geograficzna: 098-41E, wysokość: 25 m

Aktualna obserwacja pogody

Raport powstał 53 minut temu, godzina 22:00 UTC
Cisza
Temperatura 26°C
Wilgotność 100%
Ciśnienie 1011 hPa
Widzialność: 2000 m
zamglenie

METAR: WIMM 302200Z 00000KT 2000 R05/P2000 R23/P2000 BR VV005 26/26 Q1011 NOSIG

czas: 05:53 (22:53 UTC)

Prognoza

Raport powstał 5 godziny i 53 minut temu, godzina 17:00 UTC
Prognoza ważna od 30 godzina 18 UTC do 31 godzina 18 UTC
Wiatr 4 kt z kierunków zmiennych
Widzialność: 3000 m
Rozproszone chmury na wysokości 1800 ft
zamglenie
Stopniowe zmiany
od 31 godzina 03 UTC do 31 godzina 05 UTC
Wiatr 10 kt od północno-północny wschód
Widzialność: 9000 m
Stopniowe zmiany
od 31 godzina 12 UTC do 31 godzina 14 UTC
Wiatr 5 kt z kierunków zmiennych
Widzialność: 4000 m
zmętnienie

TAF: WIMM 301700Z 3018/3118 VRB04KT 3000 BR SCT018 BECMG 3103/3105 02010KT 9000 BECMG 3112/3114 VRB05KT 4000 HZ

Obserwacja i prognoza pogody dla ponad 4000 lotnisk (raport METAR i TAF).

Dostępne stacje oznaczono żółtymi i czerwonymi punktami na mapie.

Najedź kursorem aby zobaczyć nazwę stacji.

Kliknij aby zobaczyć obserwacje i prognozy pogody.

Aby zmienić mapę: kliknij na zielony przycisk z czarnym krzyżykiem, aby powiększyć; na zielony przycisk z myślnikiem, aby pomniejszyć; na zielone strzałki, aby przejść do map sąsiednich.


METAR-TAF: